createdAt,value
2022-11-04T00:00:32.283Z,99906.13
2022-11-04T00:02:58.661Z,99916.94
2022-11-04T00:05:24.916Z,99922.91
2022-11-04T00:07:51.206Z,99927.88
2022-11-04T00:10:17.486Z,99937.38
2022-11-04T00:12:45.101Z,99943.50
2022-11-04T00:15:11.390Z,99951.19
2022-11-04T00:17:37.684Z,99942.94
2022-11-04T00:20:04.217Z,99948.72
2022-11-04T00:22:30.515Z,99944.69
2022-11-04T00:24:56.802Z,99951.91
2022-11-04T00:27:23.071Z,99960.03
2022-11-04T00:29:51.078Z,99955.28
2022-11-04T00:32:17.358Z,99966.72
2022-11-04T00:34:43.647Z,99970.72
2022-11-04T00:37:09.969Z,99971.91
2022-11-04T00:39:36.268Z,99971.91
2022-11-04T00:42:02.591Z,99970.63
2022-11-04T00:44:28.868Z,99961.00
2022-11-04T00:46:56.510Z,99968.66
2022-11-04T00:49:22.851Z,99965.34
2022-11-04T00:51:49.157Z,99974.31
2022-11-04T00:54:15.440Z,99975.50
2022-11-04T00:56:41.918Z,99980.59
2022-11-04T00:59:10.406Z,99979.94
2022-11-04T01:01:40.086Z,99983.06
2022-11-04T01:04:07.817Z,99980.41
2022-11-04T01:06:34.090Z,99985.72
2022-11-04T01:09:01.472Z,99984.91
2022-11-04T01:11:27.965Z,99988.38
2022-11-04T01:13:54.246Z,99990.38
2022-11-04T01:16:20.956Z,99991.88
2022-11-04T01:18:47.608Z,99996.75
2022-11-04T01:21:16.112Z,99992.13
2022-11-04T01:23:43.473Z,100004.28
2022-11-04T01:26:11.834Z,100001.13
2022-11-04T01:28:38.188Z,100005.28
2022-11-04T01:31:05.508Z,100014.59
2022-11-04T01:33:31.835Z,100006.31
2022-11-04T01:35:59.137Z,100008.00
2022-11-04T01:38:26.784Z,100005.69
2022-11-04T01:40:53.080Z,100013.00
2022-11-04T01:43:20.529Z,100009.22
2022-11-04T01:45:48.952Z,100005.56
2022-11-04T01:48:17.774Z,100007.06
2022-11-04T01:50:44.357Z,100004.13
2022-11-04T01:53:12.526Z,100009.41
2022-11-04T01:55:45.759Z,100005.44
2022-11-04T01:58:15.640Z,100001.28
2022-11-04T02:00:42.304Z,100006.31
2022-11-04T02:03:11.323Z,100010.13
2022-11-04T02:05:38.721Z,100011.78
2022-11-04T02:08:06.786Z,100012.28
2022-11-04T02:10:33.325Z,100020.75
2022-11-04T02:13:02.671Z,100022.56
2022-11-04T02:15:32.810Z,100021.91
2022-11-04T02:18:13.991Z,100023.06
2022-11-04T02:20:59.754Z,100023.59
2022-11-04T02:23:35.846Z,100032.69
2022-11-04T02:26:14.940Z,100025.06
2022-11-04T02:28:53.292Z,100032.38
2022-11-04T02:31:26.173Z,100029.72
2022-11-04T02:33:54.341Z,100031.72
2022-11-04T02:36:23.103Z,100036.53
2022-11-04T02:38:52.606Z,100037.69
2022-11-04T02:41:25.911Z,100029.91
2022-11-04T02:43:57.928Z,100028.25
2022-11-04T02:46:31.130Z,100023.97
2022-11-04T02:49:00.663Z,100031.41
2022-11-04T02:51:29.048Z,100029.91
2022-11-04T02:54:00.696Z,100024.78
2022-11-04T02:56:28.384Z,100026.75
2022-11-04T02:58:56.656Z,100029.94
2022-11-04T03:01:24.131Z,100023.81
2022-11-04T03:03:54.496Z,100022.16
2022-11-04T03:06:22.775Z,100024.63
2022-11-04T03:08:51.255Z,100027.28
2022-11-04T03:11:18.493Z,100021.81
2022-11-04T03:13:46.872Z,100023.97
2022-11-04T03:16:15.191Z,100017.16
2022-11-04T03:18:43.529Z,100023.97
2022-11-04T03:21:12.909Z,100024.63
2022-11-04T03:23:39.604Z,100023.13
2022-11-04T03:26:09.025Z,100028.28
2022-11-04T03:28:40.436Z,100032.41
2022-11-04T03:31:09.741Z,100038.53
2022-11-04T03:33:40.025Z,100038.03
2022-11-04T03:36:06.768Z,100032.72
2022-11-04T03:38:34.709Z,100033.41
2022-11-04T03:41:02.357Z,100036.03
2022-11-04T03:43:29.071Z,100021.81
2022-11-04T03:45:55.649Z,100035.56
2022-11-04T03:48:22.177Z,100039.03
2022-11-04T03:50:48.952Z,100037.38
2022-11-04T03:53:17.289Z,100039.19
2022-11-04T03:55:50.593Z,100040.19
2022-11-04T03:58:24.365Z,100032.72
2022-11-04T04:00:53.450Z,100045.50
2022-11-04T04:03:22.881Z,100047.50
2022-11-04T04:05:53.094Z,100044.50
2022-11-04T04:08:23.589Z,100048.66
2022-11-04T04:10:57.715Z,100048.97
2022-11-04T04:13:28.787Z,100056.56
2022-11-04T04:15:57.481Z,100051.63
2022-11-04T04:18:29.151Z,100044.31
2022-11-04T04:20:57.240Z,100048.78
2022-11-04T04:23:26.657Z,100051.59
2022-11-04T04:25:55.224Z,100050.28
2022-11-04T04:28:22.009Z,100045.16
2022-11-04T04:30:48.581Z,100050.91
2022-11-04T04:33:16.074Z,100055.38
2022-11-04T04:35:44.357Z,100062.69
2022-11-04T04:38:15.872Z,100056.88
2022-11-04T04:40:42.987Z,100067.94
2022-11-04T04:43:14.435Z,100055.88
2022-11-04T04:45:42.218Z,100071.09
2022-11-04T04:48:09.326Z,100063.47
2022-11-04T04:50:37.128Z,100068.25
2022-11-04T04:53:03.397Z,100074.03
2022-11-04T04:55:30.002Z,100072.03
2022-11-04T04:57:56.336Z,100080.31
2022-11-04T05:00:24.159Z,100074.81
2022-11-04T05:02:50.754Z,100076.91
2022-11-04T05:05:17.462Z,100081.19
2022-11-04T05:07:43.798Z,100081.00
2022-11-04T05:10:10.912Z,100088.88
2022-11-04T05:12:37.756Z,100085.06
2022-11-04T05:15:04.438Z,100087.03
2022-11-04T05:17:32.068Z,100087.34
2022-11-04T05:19:58.351Z,100089.34
2022-11-04T05:22:24.616Z,100094.09
2022-11-04T05:24:50.904Z,100090.75
2022-11-04T05:27:17.188Z,100096.00
2022-11-04T05:29:43.489Z,100088.66
2022-11-04T05:32:09.757Z,100103.41
2022-11-04T05:34:37.387Z,100097.47
2022-11-04T05:37:03.657Z,100091.44
2022-11-04T05:39:29.929Z,100101.06
2022-11-04T05:41:56.204Z,100107.38
2022-11-04T05:44:22.480Z,100116.16
2022-11-04T05:46:48.765Z,100109.44
2022-11-04T05:49:15.058Z,100110.59
2022-11-04T05:51:42.770Z,100112.63
2022-11-04T05:54:09.047Z,100112.13
2022-11-04T05:56:35.342Z,100117.81
2022-11-04T05:59:01.658Z,100121.63
2022-11-04T06:01:30.271Z,100123.13
2022-11-04T06:03:57.219Z,100130.78
2022-11-04T06:06:24.381Z,100128.13
2022-11-04T06:08:52.423Z,100132.28
2022-11-04T06:11:19.221Z,100140.69
2022-11-04T06:13:45.515Z,100127.16
2022-11-04T06:16:11.810Z,100126.03
2022-11-04T06:18:38.083Z,100125.19
2022-11-04T06:21:22.178Z,100119.75
2022-11-04T06:23:48.480Z,100122.03
2022-11-04T06:26:17.553Z,100126.81
2022-11-04T06:28:44.538Z,100135.75
2022-11-04T06:31:11.596Z,100133.25
2022-11-04T06:33:38.067Z,100143.03
2022-11-04T06:36:05.217Z,100143.03
2022-11-04T06:38:32.633Z,100147.63
2022-11-04T06:40:59.010Z,100154.59
2022-11-04T06:43:26.828Z,100151.13
2022-11-04T06:45:53.350Z,100145.66
2022-11-04T06:48:19.641Z,100150.97
2022-11-04T06:50:45.916Z,100160.72
2022-11-04T06:53:12.248Z,100158.22
2022-11-04T06:55:38.571Z,100160.03
2022-11-04T06:58:04.845Z,100160.50
2022-11-04T07:00:32.558Z,100174.38
2022-11-04T07:02:58.906Z,100175.47
2022-11-04T07:05:25.215Z,100177.44
2022-11-04T07:07:51.523Z,100180.94
2022-11-04T07:10:17.835Z,100179.31
2022-11-04T07:12:44.158Z,100184.75
2022-11-04T07:15:10.568Z,100185.88
2022-11-04T07:17:38.155Z,100183.38
2022-11-04T07:20:04.926Z,100188.16
2022-11-04T07:22:31.225Z,100196.25
2022-11-04T07:24:57.539Z,100201.88
2022-11-04T07:27:23.836Z,100200.50
2022-11-04T07:29:50.148Z,100208.13
2022-11-04T07:32:16.804Z,100205.19
2022-11-04T07:34:44.399Z,100205.69
2022-11-04T07:37:10.677Z,100214.00
2022-11-04T07:39:36.960Z,100214.50
2022-11-04T07:42:03.382Z,100213.91
2022-11-04T07:44:29.675Z,100216.75
2022-11-04T07:46:55.970Z,100213.50
2022-11-04T07:49:22.229Z,100213.69
2022-11-04T07:51:49.860Z,100222.50
2022-11-04T07:54:16.157Z,100221.03
2022-11-04T07:56:42.454Z,100235.28
2022-11-04T07:59:08.770Z,100236.50
2022-11-04T08:01:35.115Z,100235.00
2022-11-04T08:04:01.485Z,100235.38
2022-11-04T08:06:27.772Z,100239.03
2022-11-04T08:08:55.448Z,100241.22
2022-11-04T08:11:23.697Z,100240.56
2022-11-04T08:13:49.986Z,100241.06
2022-11-04T08:16:17.364Z,100250.34
2022-11-04T08:18:44.144Z,100252.50
2022-11-04T08:21:11.037Z,100253.88
2022-11-04T08:23:37.349Z,100257.81
2022-11-04T08:26:09.000Z,100255.69
2022-11-04T08:28:35.309Z,100262.97
2022-11-04T08:31:02.234Z,100259.03
2022-11-04T08:33:29.551Z,100261.69
2022-11-04T08:35:58.528Z,100267.66
2022-11-04T08:38:24.838Z,100269.16
2022-11-04T08:40:55.690Z,100275.31
2022-11-04T08:43:26.263Z,100274.81
2022-11-04T08:45:52.909Z,100277.00
2022-11-04T08:48:19.355Z,100282.97
2022-11-04T08:50:48.572Z,100277.13
2022-11-04T08:53:14.852Z,100276.00
2022-11-04T08:55:41.119Z,100279.63
2022-11-04T08:58:07.829Z,100287.59
2022-11-04T09:00:35.684Z,100284.94
2022-11-04T09:03:02.266Z,100278.63
2022-11-04T09:05:28.676Z,100279.00
2022-11-04T09:07:55.011Z,100291.22
2022-11-04T09:10:21.338Z,100293.09
2022-11-04T09:12:47.691Z,100311.47
2022-11-04T09:15:13.990Z,100309.00
2022-11-04T09:17:41.625Z,100317.75
2022-11-04T09:20:08.349Z,100319.63
2022-11-04T09:22:34.645Z,100321.09
2022-11-04T09:25:01.317Z,100329.56
2022-11-04T09:27:27.620Z,100329.91
2022-11-04T09:29:53.898Z,100331.91
2022-11-04T09:32:20.176Z,100338.38
2022-11-04T09:34:47.804Z,100343.34
2022-11-04T09:37:14.086Z,100347.34
2022-11-04T09:39:40.377Z,100340.69
2022-11-04T09:42:23.950Z,100350.16
2022-11-04T09:45:20.236Z,100347.00
2022-11-04T09:47:40.773Z,100346.69
2022-11-04T09:50:10.199Z,100352.47
2022-11-04T09:52:39.253Z,100355.78
2022-11-04T09:55:10.400Z,100353.81
2022-11-04T09:57:36.787Z,100362.44
2022-11-04T10:00:03.591Z,100354.94
2022-11-04T10:02:47.580Z,100361.44
2022-11-04T10:05:21.189Z,100361.94
2022-11-04T10:07:58.237Z,100355.25
2022-11-04T10:10:29.661Z,100357.91
2022-11-04T10:13:02.396Z,100363.72
2022-11-04T10:15:45.970Z,100367.22
2022-11-04T10:18:22.691Z,100375.66
2022-11-04T10:20:56.858Z,100379.81
2022-11-04T10:23:26.679Z,100391.13
2022-11-04T10:25:55.571Z,100397.94
2022-11-04T10:28:25.163Z,100392.44
2022-11-04T10:30:51.789Z,100392.28
2022-11-04T10:33:22.228Z,100389.09
2022-11-04T10:35:51.259Z,100392.41
2022-11-04T10:38:20.031Z,100391.44
2022-11-04T10:40:47.565Z,100393.09
2022-11-04T10:43:15.479Z,100391.44
2022-11-04T10:45:44.097Z,100389.94
2022-11-04T10:48:14.628Z,100386.78
2022-11-04T10:50:45.918Z,100389.09
2022-11-04T10:53:13.309Z,100385.78
2022-11-04T10:55:47.304Z,100389.41
2022-11-04T10:58:17.271Z,100377.06
2022-11-04T11:00:43.667Z,100399.03
2022-11-04T11:03:23.912Z,100400.53
2022-11-04T11:05:51.502Z,100410.31
2022-11-04T11:08:27.203Z,100409.97
2022-11-04T11:10:54.832Z,100413.94
2022-11-04T11:13:24.322Z,100421.41
2022-11-04T11:16:04.093Z,100403.28
2022-11-04T11:18:30.384Z,100398.75
2022-11-04T11:21:04.856Z,100398.38
2022-11-04T11:23:35.842Z,100398.22
2022-11-04T11:26:05.473Z,100393.41
2022-11-04T11:28:32.093Z,100398.50
2022-11-04T11:30:59.847Z,100405.81
2022-11-04T11:33:28.362Z,100411.13
2022-11-04T11:35:56.225Z,100411.41
2022-11-04T11:38:23.641Z,100413.69
2022-11-04T11:41:10.840Z,100410.41
2022-11-04T11:43:40.839Z,100411.25
2022-11-04T11:46:07.329Z,100415.72
2022-11-04T11:48:38.816Z,100419.31
2022-11-04T11:51:05.757Z,100421.41
2022-11-04T11:53:32.386Z,100422.28
2022-11-04T11:56:03.563Z,100426.03
2022-11-04T12:01:25.709Z,100419.78
2022-11-04T12:09:34.970Z,100435.72
2022-11-04T12:12:06.004Z,100447.78
2022-11-04T12:14:39.171Z,100456.13
2022-11-04T12:17:14.681Z,100454.22
2022-11-04T12:19:49.728Z,100457.16
2022-11-04T12:22:22.789Z,100461.41
2022-11-04T12:24:54.003Z,100459.47
2022-11-04T12:27:24.329Z,100458.38
2022-11-04T12:29:57.458Z,100460.91
2022-11-04T12:32:29.380Z,100464.56
2022-11-04T12:35:03.576Z,100475.72
2022-11-04T12:37:34.266Z,100471.72
2022-11-04T12:40:07.401Z,100477.22
2022-11-04T12:42:39.266Z,100472.22
2022-11-04T12:45:12.642Z,100481.16
2022-11-04T12:47:42.613Z,100487.66
2022-11-04T12:50:21.240Z,100489.53
2022-11-04T12:52:53.239Z,100489.34
2022-11-04T12:55:28.038Z,100486.88
2022-11-04T12:57:59.240Z,100479.16
2022-11-04T13:00:25.591Z,100485.13
2022-11-04T13:02:56.513Z,100482.91
2022-11-04T13:05:33.300Z,100489.47
2022-11-04T13:08:03.592Z,100491.84
2022-11-04T13:10:36.782Z,100492.53
2022-11-04T13:13:04.109Z,100492.91
2022-11-04T13:15:33.575Z,100506.53
2022-11-04T13:18:04.860Z,100511.31
2022-11-04T13:20:34.271Z,100514.75
2022-11-04T13:23:07.688Z,100508.28
2022-11-04T13:25:39.309Z,100515.81
2022-11-04T13:28:09.878Z,100520.47
2022-11-04T13:30:40.208Z,100529.28
2022-11-04T13:33:14.163Z,100528.94
2022-11-04T13:35:43.903Z,100527.13
2022-11-04T13:38:11.733Z,100536.06
2022-11-04T13:40:45.843Z,100533.22
2022-11-04T13:43:18.503Z,100542.50
2022-11-04T13:45:46.731Z,100545.34
2022-11-04T13:48:19.090Z,100536.63
2022-11-04T13:50:45.414Z,100543.22
2022-11-04T13:53:11.945Z,100541.22
2022-11-04T13:55:48.287Z,100551.91
2022-11-04T13:58:19.338Z,100543.97
2022-11-04T14:01:08.634Z,100549.16
2022-11-04T14:03:50.061Z,100556.31
2022-11-04T14:06:16.356Z,100560.97
2022-11-04T14:09:10.034Z,100573.91
2022-11-04T14:12:06.125Z,100578.97
2022-11-04T14:14:32.395Z,100580.78
2022-11-04T14:16:58.745Z,100589.78
2022-11-04T14:19:52.001Z,100594.81
2022-11-04T14:22:19.906Z,100588.00
2022-11-04T14:24:53.929Z,100592.66
2022-11-04T14:27:24.651Z,100599.16
2022-11-04T14:29:52.365Z,100599.50
2022-11-04T14:32:23.286Z,100606.03
2022-11-04T14:34:56.970Z,100603.88
2022-11-04T14:37:26.422Z,100611.41
2022-11-04T14:39:55.168Z,100615.56
2022-11-04T14:42:42.013Z,100619.06
2022-11-04T14:45:12.470Z,100625.69
2022-11-04T14:47:39.055Z,100629.56
2022-11-04T14:50:06.301Z,100635.03
2022-11-04T14:52:35.109Z,100636.38
2022-11-04T14:55:03.839Z,100642.16
2022-11-04T14:57:30.834Z,100648.81
2022-11-04T14:59:57.125Z,100647.28
2022-11-04T15:02:24.486Z,100643.16
2022-11-04T15:04:52.663Z,100648.28
2022-11-04T15:07:36.926Z,100655.16
2022-11-04T15:10:17.498Z,100666.81
2022-11-04T15:12:43.998Z,100676.00
2022-11-04T15:15:27.556Z,100684.16
2022-11-04T15:17:54.328Z,100687.50
2022-11-04T15:20:23.264Z,100689.66
2022-11-04T15:22:51.207Z,100692.34
2022-11-04T15:25:18.360Z,100691.50
2022-11-04T15:27:44.899Z,100696.19
2022-11-04T15:30:18.731Z,100700.31
2022-11-04T15:32:52.589Z,100711.81
2022-11-04T15:35:19.036Z,100718.63
2022-11-04T15:37:45.493Z,100717.31
2022-11-04T15:40:14.328Z,100718.59
2022-11-04T15:42:43.188Z,100710.63
2022-11-04T15:45:28.253Z,100719.59
2022-11-04T15:48:13.007Z,100717.25
2022-11-04T15:50:39.356Z,100720.09
2022-11-04T15:53:09.562Z,100713.09
2022-11-04T15:55:37.603Z,100712.09
2022-11-04T15:58:03.902Z,100714.75
2022-11-04T16:00:30.305Z,100720.06
2022-11-04T16:02:57.569Z,100726.03
2022-11-04T16:05:25.867Z,100731.03
2022-11-04T16:07:53.114Z,100726.84
2022-11-04T16:10:23.562Z,100729.31
2022-11-04T16:12:51.946Z,100733.63
2022-11-04T16:15:31.923Z,100735.09
2022-11-04T16:17:58.222Z,100744.22
2022-11-04T16:20:24.671Z,100743.69
2022-11-04T16:22:55.146Z,100743.19
2022-11-04T16:25:22.925Z,100748.84
2022-11-04T16:27:50.751Z,100749.66
2022-11-04T16:30:18.471Z,100754.97
2022-11-04T16:32:45.734Z,100770.94
2022-11-04T16:35:14.697Z,100773.59
2022-11-04T16:37:40.998Z,100780.50
2022-11-04T16:40:08.073Z,100781.00
2022-11-04T16:42:34.412Z,100789.81
2022-11-04T16:45:03.455Z,100793.78
2022-11-04T16:47:30.231Z,100784.16
2022-11-04T16:49:58.934Z,100797.28
2022-11-04T16:52:25.282Z,100804.25
2022-11-04T16:54:51.594Z,100806.91
2022-11-04T16:57:17.889Z,100813.06
2022-11-04T16:59:44.151Z,100819.41
2022-11-04T17:02:17.736Z,100826.22
2022-11-04T17:04:44.117Z,100831.56
2022-11-04T17:07:10.401Z,100840.19
2022-11-04T17:09:36.719Z,100836.19
2022-11-04T17:12:03.107Z,100842.53
2022-11-04T17:14:29.378Z,100843.13
2022-11-04T17:16:58.080Z,100846.63
2022-11-04T17:19:29.279Z,100840.94
2022-11-04T17:21:59.055Z,100851.25
2022-11-04T17:24:25.373Z,100851.94
2022-11-04T17:26:51.846Z,100856.56
2022-11-04T17:29:18.135Z,100854.41
2022-11-04T17:31:44.419Z,100856.88
2022-11-04T17:34:10.824Z,100865.03
2022-11-04T17:36:38.441Z,100860.16
2022-11-04T17:39:04.787Z,100867.94
2022-11-04T17:41:31.097Z,100868.09
2022-11-04T17:43:57.395Z,100875.22
2022-11-04T17:46:23.689Z,100875.56
2022-11-04T17:48:49.976Z,100880.69
2022-11-04T17:51:16.275Z,100886.69
2022-11-04T17:53:43.916Z,100886.34
2022-11-04T17:56:13.484Z,100890.16
2022-11-04T17:58:39.784Z,100888.81
2022-11-04T18:01:06.372Z,100895.47
2022-11-04T18:03:32.695Z,100895.41
2022-11-04T18:05:59.025Z,100892.38
2022-11-04T18:08:25.307Z,100895.41
2022-11-04T18:10:58.289Z,100893.75
2022-11-04T18:13:24.749Z,100885.41
2022-11-04T18:15:51.038Z,100901.03
2022-11-04T18:18:17.319Z,100898.53
2022-11-04T18:20:43.654Z,100909.47
2022-11-04T18:23:10.252Z,100910.59
2022-11-04T18:25:38.383Z,100905.81
2022-11-04T18:28:06.159Z,100912.25
2022-11-04T18:30:32.554Z,100917.97
2022-11-04T18:32:58.840Z,100916.44
2022-11-04T18:35:25.145Z,100920.22
2022-11-04T18:37:51.450Z,100917.56
2022-11-04T18:40:17.728Z,100917.06
2022-11-04T18:42:44.032Z,100919.53
2022-11-04T18:45:11.734Z,100926.00
2022-11-04T18:47:38.036Z,100922.13
2022-11-04T18:50:04.619Z,100922.75
2022-11-04T18:52:30.881Z,100932.53
2022-11-04T18:54:57.185Z,100937.69
2022-11-04T18:57:23.475Z,100928.75
2022-11-04T18:59:49.774Z,100933.13
2022-11-04T19:02:19.352Z,100938.31
2022-11-04T19:04:45.747Z,100943.09
2022-11-04T19:07:12.036Z,100946.06
2022-11-04T19:09:46.460Z,100949.00
2022-11-04T19:12:13.266Z,100951.44
2022-11-04T19:14:39.651Z,100966.66
2022-11-04T19:17:05.983Z,100967.78
2022-11-04T19:19:33.911Z,100961.78
2022-11-04T19:22:00.246Z,100981.13
2022-11-04T19:24:26.660Z,100980.72
2022-11-04T19:26:52.973Z,100978.94
2022-11-04T19:29:19.340Z,100986.34
2022-11-04T19:31:45.652Z,100993.78
2022-11-04T19:34:12.037Z,100990.72
2022-11-04T19:36:40.092Z,100991.00
2022-11-04T19:39:06.408Z,100993.22
2022-11-04T19:41:32.742Z,100995.31
2022-11-04T19:44:00.430Z,100992.00
2022-11-04T19:46:26.798Z,100997.88
2022-11-04T19:48:53.388Z,100998.19
2022-11-04T19:51:20.837Z,101000.72
2022-11-04T19:53:48.475Z,101000.47
2022-11-04T19:56:15.655Z,101009.81
2022-11-04T19:58:41.978Z,101015.69
2022-11-04T20:01:11.398Z,101012.91
2022-11-04T20:03:38.511Z,101021.00
2022-11-04T20:06:06.193Z,101014.88
2022-11-04T20:08:32.483Z,101013.34
2022-11-04T20:11:02.966Z,101014.31
2022-11-04T20:13:29.674Z,101027.84
2022-11-04T20:15:55.978Z,101033.25
2022-11-04T20:18:22.282Z,101041.50
2022-11-04T20:20:48.579Z,101046.94
2022-11-04T20:23:14.951Z,101052.38
2022-11-04T20:25:41.301Z,101055.28
2022-11-04T20:28:09.347Z,101056.41
2022-11-04T20:30:36.381Z,101063.81
2022-11-04T20:33:02.820Z,101069.50
2022-11-04T20:35:29.105Z,101065.75
2022-11-04T20:37:55.393Z,101073.81
2022-11-04T20:40:21.769Z,101076.59
2022-11-04T20:42:48.177Z,101080.38
2022-11-04T20:45:16.988Z,101078.00
2022-11-04T20:47:43.393Z,101084.53
2022-11-04T20:50:09.931Z,101083.97
2022-11-04T20:52:36.492Z,101086.75
2022-11-04T20:55:02.874Z,101090.34
2022-11-04T20:57:29.157Z,101096.66
2022-11-04T20:59:55.459Z,101099.56
2022-11-04T21:02:23.184Z,101105.13
2022-11-04T21:04:49.582Z,101106.19
2022-11-04T21:07:15.873Z,101118.88
2022-11-04T21:09:42.168Z,101117.31
2022-11-04T21:12:08.513Z,101112.16
2022-11-04T21:14:34.804Z,101110.91
2022-11-04T21:17:01.119Z,101121.88
2022-11-04T21:19:28.836Z,101130.91
2022-11-04T21:21:55.123Z,101126.72
2022-11-04T21:24:21.441Z,101143.72
2022-11-04T21:26:47.743Z,101138.25
2022-11-04T21:29:15.171Z,101146.50
2022-11-04T21:31:42.058Z,101146.63
2022-11-04T21:34:08.751Z,101148.69
2022-11-04T21:36:36.753Z,101154.81
2022-11-04T21:39:03.511Z,101168.75
2022-11-04T21:41:31.083Z,101166.34
2022-11-04T21:43:58.045Z,101158.28
2022-11-04T21:46:24.859Z,101159.97
2022-11-04T21:48:51.190Z,101162.38
2022-11-04T21:51:18.608Z,101159.59
2022-11-04T21:53:46.385Z,101165.84
2022-11-04T21:56:13.987Z,101174.75
2022-11-04T21:58:40.709Z,101174.34
2022-11-04T22:01:07.859Z,101182.44
2022-11-04T22:03:34.474Z,101184.66
2022-11-04T22:06:01.453Z,101176.47
2022-11-04T22:08:27.763Z,101182.59
2022-11-04T22:10:55.865Z,101188.63
2022-11-04T22:13:22.695Z,101188.44
2022-11-04T22:15:49.014Z,101197.81
2022-11-04T22:18:15.350Z,101197.81
2022-11-04T22:20:41.647Z,101209.13
2022-11-04T22:23:08.257Z,101207.06
2022-11-04T22:25:34.751Z,101210.78
2022-11-04T22:28:02.402Z,101199.38
2022-11-04T22:30:28.700Z,101206.59
2022-11-04T22:32:54.979Z,101208.41
2022-11-04T22:35:21.258Z,101209.38
2022-11-04T22:37:47.632Z,101206.97
2022-11-04T22:40:13.963Z,101214.50
2022-11-04T22:42:40.259Z,101216.41
2022-11-04T22:45:12.455Z,101224.19
2022-11-04T22:47:41.787Z,101220.94
2022-11-04T22:50:08.487Z,101227.31
2022-11-04T22:52:34.792Z,101219.66
2022-11-04T22:55:01.113Z,101224.97
2022-11-04T22:57:27.417Z,101233.88
2022-11-04T22:59:53.714Z,101231.94
2022-11-04T23:02:21.462Z,101224.56
2022-11-04T23:04:47.932Z,101230.94
2022-11-04T23:07:14.202Z,101229.00
2022-11-04T23:09:40.480Z,101224.44
2022-11-04T23:12:06.787Z,101226.81
2022-11-04T23:14:33.092Z,101234.50
2022-11-04T23:16:59.505Z,101232.53
2022-11-04T23:19:30.799Z,101232.28
2022-11-04T23:21:57.560Z,101232.88
2022-11-04T23:24:23.838Z,101237.09
2022-11-04T23:26:50.475Z,101233.44
2022-11-04T23:29:16.934Z,101231.50
2022-11-04T23:31:43.218Z,101232.09
2022-11-04T23:34:09.517Z,101230.28
2022-11-04T23:36:37.161Z,101239.91
2022-11-04T23:39:03.548Z,101242.28
2022-11-04T23:41:29.844Z,101234.47
2022-11-04T23:43:56.127Z,101233.53
2022-11-04T23:46:22.415Z,101231.72
2022-11-04T23:48:48.891Z,101245.53
2022-11-04T23:51:15.167Z,101244.94
2022-11-04T23:53:42.940Z,101237.97
2022-11-04T23:56:10.273Z,101243.94
2022-11-04T23:58:36.838Z,101238.53
